Weather at Manor Farm (Haddenham) Airstrip

Public forecast

Using degrees Celsius for public forecast. Weather courtesy of forecast.io.

Closest aviation weather report (METAR) to Manor Farm (Haddenham) Airstrip

Closest report is RAF Benson, 10.6 nm (19.6 km) SSW. Retrieved 2021/10/23 00:50 UTC (43 minutes ago):

EGUB 230050Z AUTO 18004KT 9999 // OVC049/// 09/07 Q1025

Closest aviation forecast (TAF) to Manor Farm (Haddenham) Airstrip

Forecast is more than 12 hours old.

Closest forecast is RAF Benson, 10.6 nm (19.6 km) SSW. Retrieved 2021/07/01 21:06 UTC (4 months ago):

TAF TAF EGUB 010002Z 3021/0102 CNL